sensor_id;sensor_type;location;lat;lon;timestamp;P1;durP1;ratioP1;P2;durP2;ratioP2
84412;SDS011;74611;53.106;8.778;2023-12-28T00:01:08;3.63;;;0.85;;
84412;SDS011;74611;53.106;8.778;2023-12-28T00:03:33;1.88;;;0.80;;
84412;SDS011;74611;53.106;8.778;2023-12-28T00:05:59;2.15;;;0.52;;
84412;SDS011;74611;53.106;8.778;2023-12-28T00:08:24;2.78;;;0.60;;
84412;SDS011;74611;53.106;8.778;2023-12-28T00:10:50;2.28;;;0.70;;
84412;SDS011;74611;53.106;8.778;2023-12-28T00:13:15;2.75;;;0.68;;
84412;SDS011;74611;53.106;8.778;2023-12-28T00:15:41;1.98;;;0.63;;
84412;SDS011;74611;53.106;8.778;2023-12-28T00:18:06;2.45;;;0.63;;
84412;SDS011;74611;53.106;8.778;2023-12-28T00:20:32;3.05;;;0.60;;
84412;SDS011;74611;53.106;8.778;2023-12-28T00:22:57;2.55;;;0.52;;
84412;SDS011;74611;53.106;8.778;2023-12-28T00:25:24;3.30;;;0.70;;
84412;SDS011;74611;53.106;8.778;2023-12-28T00:27:49;4.03;;;0.70;;
84412;SDS011;74611;53.106;8.778;2023-12-28T00:30:15;2.10;;;0.70;;
84412;SDS011;74611;53.106;8.778;2023-12-28T00:32:42;2.55;;;0.60;;
84412;SDS011;74611;53.106;8.778;2023-12-28T00:35:09;3.55;;;0.65;;
84412;SDS011;74611;53.106;8.778;2023-12-28T00:37:35;2.15;;;0.60;;
84412;SDS011;74611;53.106;8.778;2023-12-28T00:40:00;2.08;;;0.70;;
84412;SDS011;74611;53.106;8.778;2023-12-28T00:42:26;1.88;;;0.52;;
84412;SDS011;74611;53.106;8.778;2023-12-28T00:44:51;2.28;;;0.50;;
84412;SDS011;74611;53.106;8.778;2023-12-28T00:47:17;2.95;;;0.60;;
84412;SDS011;74611;53.106;8.778;2023-12-28T00:49:43;1.70;;;0.57;;
84412;SDS011;74611;53.106;8.778;2023-12-28T00:52:08;4.25;;;0.80;;
84412;SDS011;74611;53.106;8.778;2023-12-28T00:54:35;2.88;;;0.60;;
84412;SDS011;74611;53.106;8.778;2023-12-28T00:57:02;1.98;;;0.50;;
84412;SDS011;74611;53.106;8.778;2023-12-28T00:59:28;1.50;;;0.60;;
84412;SDS011;74611;53.106;8.778;2023-12-28T01:01:55;3.00;;;0.70;;
84412;SDS011;74611;53.106;8.778;2023-12-28T01:04:20;1.45;;;0.40;;
84412;SDS011;74611;53.106;8.778;2023-12-28T01:06:48;2.15;;;0.60;;
84412;SDS011;74611;53.106;8.778;2023-12-28T01:09:14;2.78;;;0.68;;
84412;SDS011;74611;53.106;8.778;2023-12-28T01:11:39;1.25;;;0.40;;
84412;SDS011;74611;53.106;8.778;2023-12-28T01:14:05;2.72;;;0.63;;
84412;SDS011;74611;53.106;8.778;2023-12-28T01:16:30;2.97;;;0.50;;
84412;SDS011;74611;53.106;8.778;2023-12-28T01:18:55;1.73;;;0.63;;
84412;SDS011;74611;53.106;8.778;2023-12-28T01:21:21;1.75;;;0.50;;
84412;SDS011;74611;53.106;8.778;2023-12-28T01:23:46;1.58;;;0.40;;
84412;SDS011;74611;53.106;8.778;2023-12-28T01:26:13;1.67;;;0.52;;
84412;SDS011;74611;53.106;8.778;2023-12-28T01:28:39;2.58;;;0.70;;
84412;SDS011;74611;53.106;8.778;2023-12-28T01:31:05;2.22;;;0.60;;
84412;SDS011;74611;53.106;8.778;2023-12-28T01:33:30;2.40;;;0.57;;
84412;SDS011;74611;53.106;8.778;2023-12-28T01:35:56;3.22;;;0.55;;
84412;SDS011;74611;53.106;8.778;2023-12-28T01:38:21;2.75;;;0.60;;
84412;SDS011;74611;53.106;8.778;2023-12-28T01:40:46;1.83;;;0.50;;
84412;SDS011;74611;53.106;8.778;2023-12-28T01:43:12;2.88;;;0.60;;
84412;SDS011;74611;53.106;8.778;2023-12-28T01:45:37;3.53;;;0.45;;
84412;SDS011;74611;53.106;8.778;2023-12-28T01:48:03;2.00;;;0.50;;
84412;SDS011;74611;53.106;8.778;2023-12-28T01:50:29;1.55;;;0.60;;
84412;SDS011;74611;53.106;8.778;2023-12-28T01:52:56;1.65;;;0.70;;
84412;SDS011;74611;53.106;8.778;2023-12-28T01:55:24;1.10;;;0.35;;
84412;SDS011;74611;53.106;8.778;2023-12-28T01:57:50;1.98;;;0.60;;
84412;SDS011;74611;53.106;8.778;2023-12-28T02:00:16;1.27;;;0.30;;
84412;SDS011;74611;53.106;8.778;2023-12-28T02:02:41;2.28;;;0.40;;
84412;SDS011;74611;53.106;8.778;2023-12-28T02:05:08;2.08;;;0.50;;
84412;SDS011;74611;53.106;8.778;2023-12-28T02:07:35;3.00;;;0.50;;
84412;SDS011;74611;53.106;8.778;2023-12-28T02:10:01;2.65;;;0.65;;
84412;SDS011;74611;53.106;8.778;2023-12-28T02:12:27;1.63;;;0.40;;
84412;SDS011;74611;53.106;8.778;2023-12-28T02:14:52;1.73;;;0.40;;
84412;SDS011;74611;53.106;8.778;2023-12-28T02:17:20;1.58;;;0.60;;
84412;SDS011;74611;53.106;8.778;2023-12-28T02:19:52;3.17;;;0.40;;
84412;SDS011;74611;53.106;8.778;2023-12-28T02:22:19;3.15;;;0.50;;
84412;SDS011;74611;53.106;8.778;2023-12-28T02:25:04;2.70;;;0.65;;
84412;SDS011;74611;53.106;8.778;2023-12-28T02:27:34;1.38;;;0.43;;
84412;SDS011;74611;53.106;8.778;2023-12-28T02:30:01;2.10;;;0.40;;
84412;SDS011;74611;53.106;8.778;2023-12-28T02:32:35;1.75;;;0.43;;
84412;SDS011;74611;53.106;8.778;2023-12-28T02:35:06;1.88;;;0.40;;
84412;SDS011;74611;53.106;8.778;2023-12-28T02:37:40;1.40;;;0.30;;
84412;SDS011;74611;53.106;8.778;2023-12-28T02:40:06;1.98;;;0.60;;
84412;SDS011;74611;53.106;8.778;2023-12-28T02:42:33;1.27;;;0.38;;
84412;SDS011;74611;53.106;8.778;2023-12-28T02:44:59;1.98;;;0.50;;
84412;SDS011;74611;53.106;8.778;2023-12-28T02:47:25;2.55;;;0.45;;
84412;SDS011;74611;53.106;8.778;2023-12-28T02:49:50;1.73;;;0.50;;
84412;SDS011;74611;53.106;8.778;2023-12-28T02:52:16;2.30;;;0.55;;
84412;SDS011;74611;53.106;8.778;2023-12-28T02:54:41;1.95;;;0.63;;
84412;SDS011;74611;53.106;8.778;2023-12-28T02:57:06;1.23;;;0.40;;
84412;SDS011;74611;53.106;8.778;2023-12-28T02:59:32;1.52;;;0.38;;
84412;SDS011;74611;53.106;8.778;2023-12-28T03:01:57;2.20;;;0.50;;
84412;SDS011;74611;53.106;8.778;2023-12-28T03:04:22;1.48;;;0.47;;
84412;SDS011;74611;53.106;8.778;2023-12-28T03:06:48;1.73;;;0.40;;
84412;SDS011;74611;53.106;8.778;2023-12-28T03:09:13;2.20;;;0.63;;
84412;SDS011;74611;53.106;8.778;2023-12-28T03:11:39;1.83;;;0.40;;
84412;SDS011;74611;53.106;8.778;2023-12-28T03:14:04;1.58;;;0.40;;
84412;SDS011;74611;53.106;8.778;2023-12-28T03:16:30;1.90;;;0.57;;
84412;SDS011;74611;53.106;8.778;2023-12-28T03:18:55;2.05;;;0.50;;
84412;SDS011;74611;53.106;8.778;2023-12-28T03:21:20;1.75;;;0.55;;
84412;SDS011;74611;53.106;8.778;2023-12-28T03:23:46;1.25;;;0.30;;
84412;SDS011;74611;53.106;8.778;2023-12-28T03:26:11;2.17;;;0.55;;
84412;SDS011;74611;53.106;8.778;2023-12-28T03:28:37;1.75;;;0.50;;
84412;SDS011;74611;53.106;8.778;2023-12-28T03:31:02;1.58;;;0.40;;
84412;SDS011;74611;53.106;8.778;2023-12-28T03:33:28;2.47;;;0.40;;
84412;SDS011;74611;53.106;8.778;2023-12-28T03:35:53;1.90;;;0.40;;
84412;SDS011;74611;53.106;8.778;2023-12-28T03:38:19;2.05;;;0.40;;
84412;SDS011;74611;53.106;8.778;2023-12-28T03:40:44;1.80;;;0.52;;
84412;SDS011;74611;53.106;8.778;2023-12-28T03:43:12;2.67;;;0.40;;
84412;SDS011;74611;53.106;8.778;2023-12-28T03:45:38;1.27;;;0.40;;
84412;SDS011;74611;53.106;8.778;2023-12-28T03:48:03;1.73;;;0.40;;
84412;SDS011;74611;53.106;8.778;2023-12-28T03:50:29;1.48;;;0.30;;
84412;SDS011;74611;53.106;8.778;2023-12-28T03:52:55;0.82;;;0.40;;
84412;SDS011;74611;53.106;8.778;2023-12-28T03:55:20;1.98;;;0.40;;
84412;SDS011;74611;53.106;8.778;2023-12-28T03:57:46;1.52;;;0.47;;
84412;SDS011;74611;53.106;8.778;2023-12-28T04:00:12;1.83;;;0.50;;
84412;SDS011;74611;53.106;8.778;2023-12-28T04:02:39;1.58;;;0.47;;
84412;SDS011;74611;53.106;8.778;2023-12-28T04:05:05;1.38;;;0.40;;
84412;SDS011;74611;53.106;8.778;2023-12-28T04:07:32;2.28;;;0.50;;
84412;SDS011;74611;53.106;8.778;2023-12-28T04:09:57;2.75;;;0.60;;
84412;SDS011;74611;53.106;8.778;2023-12-28T04:12:23;1.48;;;0.40;;
84412;SDS011;74611;53.106;8.778;2023-12-28T04:14:49;1.20;;;0.30;;
84412;SDS011;74611;53.106;8.778;2023-12-28T04:17:14;2.40;;;0.60;;
84412;SDS011;74611;53.106;8.778;2023-12-28T04:19:39;0.73;;;0.20;;
84412;SDS011;74611;53.106;8.778;2023-12-28T04:22:05;1.75;;;0.30;;
84412;SDS011;74611;53.106;8.778;2023-12-28T04:24:30;1.52;;;0.50;;
84412;SDS011;74611;53.106;8.778;2023-12-28T04:26:56;1.50;;;0.57;;
84412;SDS011;74611;53.106;8.778;2023-12-28T04:29:21;1.50;;;0.40;;
84412;SDS011;74611;53.106;8.778;2023-12-28T04:31:47;1.58;;;0.50;;
84412;SDS011;74611;53.106;8.778;2023-12-28T04:34:12;1.55;;;0.40;;
84412;SDS011;74611;53.106;8.778;2023-12-28T04:36:41;1.50;;;0.40;;
84412;SDS011;74611;53.106;8.778;2023-12-28T04:39:10;4.00;;;0.40;;
84412;SDS011;74611;53.106;8.778;2023-12-28T04:41:37;1.85;;;0.40;;
84412;SDS011;74611;53.106;8.778;2023-12-28T04:44:02;0.95;;;0.25;;
84412;SDS011;74611;53.106;8.778;2023-12-28T04:46:28;1.42;;;0.32;;
84412;SDS011;74611;53.106;8.778;2023-12-28T04:48:53;1.63;;;0.30;;
84412;SDS011;74611;53.106;8.778;2023-12-28T04:51:19;1.65;;;0.40;;
84412;SDS011;74611;53.106;8.778;2023-12-28T04:53:44;1.20;;;0.40;;
84412;SDS011;74611;53.106;8.778;2023-12-28T04:56:10;1.33;;;0.40;;
84412;SDS011;74611;53.106;8.778;2023-12-28T04:58:35;2.58;;;0.65;;
84412;SDS011;74611;53.106;8.778;2023-12-28T05:01:01;1.08;;;0.30;;
84412;SDS011;74611;53.106;8.778;2023-12-28T05:03:27;1.55;;;0.40;;
84412;SDS011;74611;53.106;8.778;2023-12-28T05:05:53;1.63;;;0.47;;
84412;SDS011;74611;53.106;8.778;2023-12-28T05:08:18;1.38;;;0.30;;
84412;SDS011;74611;53.106;8.778;2023-12-28T05:10:44;1.48;;;0.45;;
84412;SDS011;74611;53.106;8.778;2023-12-28T05:13:09;1.67;;;0.55;;
84412;SDS011;74611;53.106;8.778;2023-12-28T05:15:34;1.00;;;0.30;;
84412;SDS011;74611;53.106;8.778;2023-12-28T05:18:00;1.15;;;0.45;;
84412;SDS011;74611;53.106;8.778;2023-12-28T05:20:25;1.13;;;0.40;;
84412;SDS011;74611;53.106;8.778;2023-12-28T05:22:50;1.40;;;0.38;;
84412;SDS011;74611;53.106;8.778;2023-12-28T05:25:16;0.80;;;0.30;;
84412;SDS011;74611;53.106;8.778;2023-12-28T05:27:41;1.58;;;0.30;;
84412;SDS011;74611;53.106;8.778;2023-12-28T05:30:08;1.23;;;0.40;;
84412;SDS011;74611;53.106;8.778;2023-12-28T05:32:34;1.40;;;0.30;;
84412;SDS011;74611;53.106;8.778;2023-12-28T05:35:00;1.38;;;0.40;;
84412;SDS011;74611;53.106;8.778;2023-12-28T05:37:25;1.63;;;0.40;;
84412;SDS011;74611;53.106;8.778;2023-12-28T05:39:51;1.23;;;0.32;;
84412;SDS011;74611;53.106;8.778;2023-12-28T05:42:16;1.67;;;0.43;;
84412;SDS011;74611;53.106;8.778;2023-12-28T05:44:42;1.75;;;0.45;;
84412;SDS011;74611;53.106;8.778;2023-12-28T05:47:07;1.27;;;0.43;;
84412;SDS011;74611;53.106;8.778;2023-12-28T05:49:32;1.40;;;0.30;;
84412;SDS011;74611;53.106;8.778;2023-12-28T05:51:58;1.17;;;0.40;;
84412;SDS011;74611;53.106;8.778;2023-12-28T05:54:23;0.93;;;0.32;;
84412;SDS011;74611;53.106;8.778;2023-12-28T05:56:49;0.80;;;0.22;;
84412;SDS011;74611;53.106;8.778;2023-12-28T05:59:14;1.38;;;0.30;;
84412;SDS011;74611;53.106;8.778;2023-12-28T06:01:43;1.55;;;0.30;;
84412;SDS011;74611;53.106;8.778;2023-12-28T06:04:09;1.35;;;0.40;;
84412;SDS011;74611;53.106;8.778;2023-12-28T06:06:34;1.63;;;0.38;;
84412;SDS011;74611;53.106;8.778;2023-12-28T06:11:28;1.77;;;0.40;;
84412;SDS011;74611;53.106;8.778;2023-12-28T06:13:53;1.08;;;0.40;;
84412;SDS011;74611;53.106;8.778;2023-12-28T06:16:19;1.65;;;0.30;;
84412;SDS011;74611;53.106;8.778;2023-12-28T06:18:44;0.90;;;0.30;;
84412;SDS011;74611;53.106;8.778;2023-12-28T06:21:10;1.55;;;0.45;;
84412;SDS011;74611;53.106;8.778;2023-12-28T06:23:35;1.33;;;0.35;;
84412;SDS011;74611;53.106;8.778;2023-12-28T06:26:04;1.55;;;0.38;;
84412;SDS011;74611;53.106;8.778;2023-12-28T06:28:30;1.15;;;0.40;;
84412;SDS011;74611;53.106;8.778;2023-12-28T06:30:57;1.77;;;0.20;;
84412;SDS011;74611;53.106;8.778;2023-12-28T06:33:25;1.90;;;0.40;;
84412;SDS011;74611;53.106;8.778;2023-12-28T06:35:51;1.67;;;0.25;;
84412;SDS011;74611;53.106;8.778;2023-12-28T06:40:43;0.77;;;0.20;;
84412;SDS011;74611;53.106;8.778;2023-12-28T06:43:08;2.08;;;0.50;;
84412;SDS011;74611;53.106;8.778;2023-12-28T06:45:34;1.80;;;0.50;;
84412;SDS011;74611;53.106;8.778;2023-12-28T06:47:59;1.75;;;0.43;;
84412;SDS011;74611;53.106;8.778;2023-12-28T06:50:24;1.20;;;0.40;;
84412;SDS011;74611;53.106;8.778;2023-12-28T06:52:50;1.23;;;0.40;;
84412;SDS011;74611;53.106;8.778;2023-12-28T06:55:15;0.98;;;0.38;;
84412;SDS011;74611;53.106;8.778;2023-12-28T06:57:41;1.65;;;0.40;;
84412;SDS011;74611;53.106;8.778;2023-12-28T07:00:06;1.35;;;0.47;;
84412;SDS011;74611;53.106;8.778;2023-12-28T07:02:32;1.80;;;0.50;;
84412;SDS011;74611;53.106;8.778;2023-12-28T07:04:58;0.88;;;0.28;;
84412;SDS011;74611;53.106;8.778;2023-12-28T07:07:23;2.22;;;0.50;;
84412;SDS011;74611;53.106;8.778;2023-12-28T07:09:48;0.75;;;0.25;;
84412;SDS011;74611;53.106;8.778;2023-12-28T07:12:14;2.22;;;0.35;;
84412;SDS011;74611;53.106;8.778;2023-12-28T07:14:40;1.50;;;0.40;;
84412;SDS011;74611;53.106;8.778;2023-12-28T07:17:05;1.42;;;0.40;;
84412;SDS011;74611;53.106;8.778;2023-12-28T07:19:31;0.88;;;0.30;;
84412;SDS011;74611;53.106;8.778;2023-12-28T07:21:56;1.38;;;0.40;;
84412;SDS011;74611;53.106;8.778;2023-12-28T07:24:23;1.33;;;0.40;;
84412;SDS011;74611;53.106;8.778;2023-12-28T07:26:48;0.93;;;0.30;;
84412;SDS011;74611;53.106;8.778;2023-12-28T07:29:13;2.45;;;0.50;;
84412;SDS011;74611;53.106;8.778;2023-12-28T07:31:39;2.88;;;0.52;;
84412;SDS011;74611;53.106;8.778;2023-12-28T07:34:04;5.88;;;0.70;;
84412;SDS011;74611;53.106;8.778;2023-12-28T07:36:30;5.55;;;0.60;;
84412;SDS011;74611;53.106;8.778;2023-12-28T07:38:56;2.20;;;0.40;;
84412;SDS011;74611;53.106;8.778;2023-12-28T07:41:21;4.97;;;0.50;;
84412;SDS011;74611;53.106;8.778;2023-12-28T07:43:46;1.60;;;0.38;;
84412;SDS011;74611;53.106;8.778;2023-12-28T07:46:12;5.00;;;1.65;;
84412;SDS011;74611;53.106;8.778;2023-12-28T07:48:37;3.25;;;1.10;;
84412;SDS011;74611;53.106;8.778;2023-12-28T07:51:06;4.68;;;1.33;;
84412;SDS011;74611;53.106;8.778;2023-12-28T07:53:32;6.07;;;1.33;;
84412;SDS011;74611;53.106;8.778;2023-12-28T07:55:57;6.03;;;1.33;;
84412;SDS011;74611;53.106;8.778;2023-12-28T07:58:23;5.40;;;1.73;;
84412;SDS011;74611;53.106;8.778;2023-12-28T08:00:48;6.90;;;1.63;;
84412;SDS011;74611;53.106;8.778;2023-12-28T08:03:14;6.32;;;1.50;;
84412;SDS011;74611;53.106;8.778;2023-12-28T08:05:40;6.40;;;1.42;;
84412;SDS011;74611;53.106;8.778;2023-12-28T08:08:06;6.15;;;1.77;;
84412;SDS011;74611;53.106;8.778;2023-12-28T08:10:32;5.72;;;2.08;;
84412;SDS011;74611;53.106;8.778;2023-12-28T08:12:58;6.55;;;1.80;;
84412;SDS011;74611;53.106;8.778;2023-12-28T08:15:23;7.57;;;2.20;;
84412;SDS011;74611;53.106;8.778;2023-12-28T08:17:48;7.60;;;2.45;;
84412;SDS011;74611;53.106;8.778;2023-12-28T08:20:14;8.75;;;2.05;;
84412;SDS011;74611;53.106;8.778;2023-12-28T08:22:39;10.02;;;2.30;;
84412;SDS011;74611;53.106;8.778;2023-12-28T08:25:05;9.60;;;2.28;;
84412;SDS011;74611;53.106;8.778;2023-12-28T08:27:30;7.90;;;2.20;;
84412;SDS011;74611;53.106;8.778;2023-12-28T08:29:56;5.72;;;2.05;;
84412;SDS011;74611;53.106;8.778;2023-12-28T08:32:21;6.43;;;2.33;;
84412;SDS011;74611;53.106;8.778;2023-12-28T08:34:46;4.97;;;1.92;;
84412;SDS011;74611;53.106;8.778;2023-12-28T08:37:13;5.85;;;1.90;;
84412;SDS011;74611;53.106;8.778;2023-12-28T08:39:39;8.35;;;2.50;;
84412;SDS011;74611;53.106;8.778;2023-12-28T08:42:05;12.90;;;2.42;;
84412;SDS011;74611;53.106;8.778;2023-12-28T08:44:30;9.68;;;2.30;;
84412;SDS011;74611;53.106;8.778;2023-12-28T08:46:56;8.98;;;1.83;;
84412;SDS011;74611;53.106;8.778;2023-12-28T08:49:21;9.88;;;1.90;;
84412;SDS011;74611;53.106;8.778;2023-12-28T08:51:47;6.50;;;1.80;;
84412;SDS011;74611;53.106;8.778;2023-12-28T08:54:12;11.07;;;2.38;;
84412;SDS011;74611;53.106;8.778;2023-12-28T08:59:04;8.00;;;2.03;;
84412;SDS011;74611;53.106;8.778;2023-12-28T09:01:30;7.32;;;2.10;;
84412;SDS011;74611;53.106;8.778;2023-12-28T09:03:55;6.85;;;1.95;;
84412;SDS011;74611;53.106;8.778;2023-12-28T09:06:21;11.75;;;2.00;;
84412;SDS011;74611;53.106;8.778;2023-12-28T09:08:50;11.05;;;2.30;;
84412;SDS011;74611;53.106;8.778;2023-12-28T09:11:17;7.30;;;1.77;;
84412;SDS011;74611;53.106;8.778;2023-12-28T09:13:43;8.25;;;1.63;;
84412;SDS011;74611;53.106;8.778;2023-12-28T09:16:12;17.55;;;2.83;;
84412;SDS011;74611;53.106;8.778;2023-12-28T09:18:39;7.25;;;1.73;;
84412;SDS011;74611;53.106;8.778;2023-12-28T09:21:06;7.78;;;1.88;;
84412;SDS011;74611;53.106;8.778;2023-12-28T09:23:32;8.07;;;1.60;;
84412;SDS011;74611;53.106;8.778;2023-12-28T09:25:58;6.43;;;1.52;;
84412;SDS011;74611;53.106;8.778;2023-12-28T09:28:33;9.18;;;2.00;;
84412;SDS011;74611;53.106;8.778;2023-12-28T09:30:59;7.65;;;1.75;;
84412;SDS011;74611;53.106;8.778;2023-12-28T09:33:25;6.50;;;1.88;;
84412;SDS011;74611;53.106;8.778;2023-12-28T09:35:50;9.23;;;2.10;;
84412;SDS011;74611;53.106;8.778;2023-12-28T09:38:18;8.63;;;1.95;;
84412;SDS011;74611;53.106;8.778;2023-12-28T09:40:44;9.48;;;1.95;;
84412;SDS011;74611;53.106;8.778;2023-12-28T09:43:15;11.38;;;1.55;;
84412;SDS011;74611;53.106;8.778;2023-12-28T09:45:47;10.00;;;1.88;;
84412;SDS011;74611;53.106;8.778;2023-12-28T09:48:16;7.22;;;1.70;;
84412;SDS011;74611;53.106;8.778;2023-12-28T09:50:52;7.32;;;1.92;;
84412;SDS011;74611;53.106;8.778;2023-12-28T09:53:23;8.95;;;1.90;;
84412;SDS011;74611;53.106;8.778;2023-12-28T09:55:49;5.78;;;1.40;;
84412;SDS011;74611;53.106;8.778;2023-12-28T09:58:16;7.00;;;1.50;;
84412;SDS011;74611;53.106;8.778;2023-12-28T10:00:44;6.90;;;1.50;;
84412;SDS011;74611;53.106;8.778;2023-12-28T10:03:14;7.13;;;1.90;;
84412;SDS011;74611;53.106;8.778;2023-12-28T10:05:40;6.85;;;1.45;;
84412;SDS011;74611;53.106;8.778;2023-12-28T10:08:06;6.75;;;1.20;;
84412;SDS011;74611;53.106;8.778;2023-12-28T10:10:32;7.30;;;1.70;;
84412;SDS011;74611;53.106;8.778;2023-12-28T10:12:57;10.25;;;1.48;;
84412;SDS011;74611;53.106;8.778;2023-12-28T10:15:23;11.30;;;1.40;;
84412;SDS011;74611;53.106;8.778;2023-12-28T10:17:51;5.57;;;1.40;;
84412;SDS011;74611;53.106;8.778;2023-12-28T10:20:17;6.25;;;1.45;;
84412;SDS011;74611;53.106;8.778;2023-12-28T10:22:42;6.90;;;1.55;;
84412;SDS011;74611;53.106;8.778;2023-12-28T10:25:09;6.68;;;1.48;;
84412;SDS011;74611;53.106;8.778;2023-12-28T10:27:37;4.80;;;1.25;;
84412;SDS011;74611;53.106;8.778;2023-12-28T10:30:07;4.18;;;1.17;;
84412;SDS011;74611;53.106;8.778;2023-12-28T10:32:34;6.90;;;1.00;;
84412;SDS011;74611;53.106;8.778;2023-12-28T10:34:59;4.20;;;1.33;;
84412;SDS011;74611;53.106;8.778;2023-12-28T10:37:24;6.40;;;1.20;;
84412;SDS011;74611;53.106;8.778;2023-12-28T10:39:52;8.00;;;1.63;;
84412;SDS011;74611;53.106;8.778;2023-12-28T10:42:29;5.03;;;1.45;;
84412;SDS011;74611;53.106;8.778;2023-12-28T10:45:02;4.43;;;1.25;;
84412;SDS011;74611;53.106;8.778;2023-12-28T10:47:33;11.00;;;1.42;;
84412;SDS011;74611;53.106;8.778;2023-12-28T10:50:07;4.88;;;1.10;;
84412;SDS011;74611;53.106;8.778;2023-12-28T10:52:35;5.55;;;1.10;;
84412;SDS011;74611;53.106;8.778;2023-12-28T10:57:46;5.63;;;1.20;;
84412;SDS011;74611;53.106;8.778;2023-12-28T11:00:20;5.82;;;1.00;;
84412;SDS011;74611;53.106;8.778;2023-12-28T11:05:16;5.97;;;1.13;;
84412;SDS011;74611;53.106;8.778;2023-12-28T11:07:44;3.60;;;0.95;;
84412;SDS011;74611;53.106;8.778;2023-12-28T11:12:38;7.68;;;1.10;;
84412;SDS011;74611;53.106;8.778;2023-12-28T11:15:05;7.18;;;1.27;;
84412;SDS011;74611;53.106;8.778;2023-12-28T11:17:31;7.40;;;1.02;;
84412;SDS011;74611;53.106;8.778;2023-12-28T11:19:58;7.00;;;1.15;;
84412;SDS011;74611;53.106;8.778;2023-12-28T11:24:53;6.28;;;1.15;;
84412;SDS011;74611;53.106;8.778;2023-12-28T11:27:19;5.07;;;1.27;;
84412;SDS011;74611;53.106;8.778;2023-12-28T11:29:47;6.93;;;1.23;;
84412;SDS011;74611;53.106;8.778;2023-12-28T11:32:13;8.35;;;1.33;;
84412;SDS011;74611;53.106;8.778;2023-12-28T11:34:39;4.38;;;0.95;;
84412;SDS011;74611;53.106;8.778;2023-12-28T11:37:06;5.95;;;1.23;;
84412;SDS011;74611;53.106;8.778;2023-12-28T11:39:37;12.02;;;1.58;;
84412;SDS011;74611;53.106;8.778;2023-12-28T11:42:08;10.18;;;1.30;;
84412;SDS011;74611;53.106;8.778;2023-12-28T11:44:38;5.32;;;1.30;;
84412;SDS011;74611;53.106;8.778;2023-12-28T11:47:13;7.13;;;1.35;;
84412;SDS011;74611;53.106;8.778;2023-12-28T11:49:39;5.25;;;1.25;;
84412;SDS011;74611;53.106;8.778;2023-12-28T11:52:05;3.50;;;0.80;;
84412;SDS011;74611;53.106;8.778;2023-12-28T11:54:32;5.55;;;0.80;;
84412;SDS011;74611;53.106;8.778;2023-12-28T11:56:57;10.32;;;0.90;;
84412;SDS011;74611;53.106;8.778;2023-12-28T11:59:22;3.85;;;0.80;;
84412;SDS011;74611;53.106;8.778;2023-12-28T12:01:51;8.27;;;1.08;;
84412;SDS011;74611;53.106;8.778;2023-12-28T12:04:18;3.97;;;0.80;;
84412;SDS011;74611;53.106;8.778;2023-12-28T12:06:44;5.47;;;0.90;;
84412;SDS011;74611;53.106;8.778;2023-12-28T12:09:11;4.10;;;1.00;;
84412;SDS011;74611;53.106;8.778;2023-12-28T12:11:37;7.20;;;0.93;;
84412;SDS011;74611;53.106;8.778;2023-12-28T12:14:03;5.65;;;1.02;;
84412;SDS011;74611;53.106;8.778;2023-12-28T12:16:34;4.95;;;1.05;;
84412;SDS011;74611;53.106;8.778;2023-12-28T12:19:00;6.07;;;1.13;;
84412;SDS011;74611;53.106;8.778;2023-12-28T12:21:26;5.40;;;0.90;;
84412;SDS011;74611;53.106;8.778;2023-12-28T12:23:52;3.75;;;0.90;;
84412;SDS011;74611;53.106;8.778;2023-12-28T12:26:17;4.78;;;1.00;;
84412;SDS011;74611;53.106;8.778;2023-12-28T12:28:43;6.10;;;0.73;;
84412;SDS011;74611;53.106;8.778;2023-12-28T12:31:10;5.97;;;0.63;;
84412;SDS011;74611;53.106;8.778;2023-12-28T12:33:36;5.53;;;0.90;;
84412;SDS011;74611;53.106;8.778;2023-12-28T12:36:03;6.47;;;0.95;;
84412;SDS011;74611;53.106;8.778;2023-12-28T12:38:30;5.53;;;0.60;;
84412;SDS011;74611;53.106;8.778;2023-12-28T12:40:57;4.93;;;0.57;;
84412;SDS011;74611;53.106;8.778;2023-12-28T12:43:23;3.28;;;0.63;;
84412;SDS011;74611;53.106;8.778;2023-12-28T12:45:49;6.65;;;1.00;;
84412;SDS011;74611;53.106;8.778;2023-12-28T12:48:15;4.28;;;0.93;;
84412;SDS011;74611;53.106;8.778;2023-12-28T12:50:40;7.07;;;0.80;;
84412;SDS011;74611;53.106;8.778;2023-12-28T12:53:06;4.47;;;0.57;;
84412;SDS011;74611;53.106;8.778;2023-12-28T12:55:31;8.50;;;0.95;;
84412;SDS011;74611;53.106;8.778;2023-12-28T12:57:57;6.85;;;1.00;;
84412;SDS011;74611;53.106;8.778;2023-12-28T13:00:23;4.55;;;0.68;;
84412;SDS011;74611;53.106;8.778;2023-12-28T13:02:52;7.97;;;0.73;;
84412;SDS011;74611;53.106;8.778;2023-12-28T13:05:21;5.30;;;0.73;;
84412;SDS011;74611;53.106;8.778;2023-12-28T13:07:48;4.50;;;0.80;;
84412;SDS011;74611;53.106;8.778;2023-12-28T13:10:14;6.93;;;0.70;;
84412;SDS011;74611;53.106;8.778;2023-12-28T13:12:39;13.00;;;0.95;;
84412;SDS011;74611;53.106;8.778;2023-12-28T13:15:05;4.97;;;0.60;;
84412;SDS011;74611;53.106;8.778;2023-12-28T13:19:56;9.50;;;0.90;;
84412;SDS011;74611;53.106;8.778;2023-12-28T13:22:22;6.35;;;0.73;;
84412;SDS011;74611;53.106;8.778;2023-12-28T13:24:47;2.95;;;0.40;;
84412;SDS011;74611;53.106;8.778;2023-12-28T13:27:13;3.58;;;0.55;;
84412;SDS011;74611;53.106;8.778;2023-12-28T13:29:39;4.22;;;0.65;;
84412;SDS011;74611;53.106;8.778;2023-12-28T13:32:05;4.32;;;0.98;;
84412;SDS011;74611;53.106;8.778;2023-12-28T13:34:30;5.00;;;0.60;;
84412;SDS011;74611;53.106;8.778;2023-12-28T13:36:56;4.30;;;0.68;;
84412;SDS011;74611;53.106;8.778;2023-12-28T13:39:21;4.53;;;0.80;;
84412;SDS011;74611;53.106;8.778;2023-12-28T13:41:47;3.55;;;0.60;;
84412;SDS011;74611;53.106;8.778;2023-12-28T13:44:12;5.45;;;0.52;;
84412;SDS011;74611;53.106;8.778;2023-12-28T13:46:38;4.68;;;0.63;;
84412;SDS011;74611;53.106;8.778;2023-12-28T13:51:33;3.65;;;0.32;;
84412;SDS011;74611;53.106;8.778;2023-12-28T13:53:59;4.70;;;0.40;;
84412;SDS011;74611;53.106;8.778;2023-12-28T13:56:24;3.58;;;0.60;;
84412;SDS011;74611;53.106;8.778;2023-12-28T13:58:49;7.95;;;0.73;;
84412;SDS011;74611;53.106;8.778;2023-12-28T14:01:15;4.95;;;0.63;;
84412;SDS011;74611;53.106;8.778;2023-12-28T14:03:40;5.18;;;0.90;;
84412;SDS011;74611;53.106;8.778;2023-12-28T14:06:06;2.78;;;0.40;;
84412;SDS011;74611;53.106;8.778;2023-12-28T14:08:31;5.10;;;0.75;;
84412;SDS011;74611;53.106;8.778;2023-12-28T14:10:57;5.53;;;0.60;;
84412;SDS011;74611;53.106;8.778;2023-12-28T14:13:22;6.03;;;0.80;;
84412;SDS011;74611;53.106;8.778;2023-12-28T14:15:48;6.88;;;0.73;;
84412;SDS011;74611;53.106;8.778;2023-12-28T14:18:14;4.10;;;0.70;;
84412;SDS011;74611;53.106;8.778;2023-12-28T14:20:39;4.85;;;0.60;;
84412;SDS011;74611;53.106;8.778;2023-12-28T14:23:05;11.50;;;1.10;;
84412;SDS011;74611;53.106;8.778;2023-12-28T14:25:30;5.40;;;0.60;;
84412;SDS011;74611;53.106;8.778;2023-12-28T14:27:56;4.35;;;0.60;;
84412;SDS011;74611;53.106;8.778;2023-12-28T14:30:22;6.82;;;0.80;;
84412;SDS011;74611;53.106;8.778;2023-12-28T14:32:48;7.30;;;1.00;;
84412;SDS011;74611;53.106;8.778;2023-12-28T14:35:14;4.72;;;0.70;;
84412;SDS011;74611;53.106;8.778;2023-12-28T14:37:42;7.15;;;0.60;;
84412;SDS011;74611;53.106;8.778;2023-12-28T14:40:08;6.82;;;0.80;;
84412;SDS011;74611;53.106;8.778;2023-12-28T14:42:36;3.88;;;0.40;;
84412;SDS011;74611;53.106;8.778;2023-12-28T14:45:02;4.57;;;0.70;;
84412;SDS011;74611;53.106;8.778;2023-12-28T14:47:28;6.93;;;1.80;;
84412;SDS011;74611;53.106;8.778;2023-12-28T14:49:53;9.43;;;2.22;;
84412;SDS011;74611;53.106;8.778;2023-12-28T14:54:45;6.50;;;1.67;;
84412;SDS011;74611;53.106;8.778;2023-12-28T14:57:10;9.15;;;2.10;;
84412;SDS011;74611;53.106;8.778;2023-12-28T14:59:37;7.53;;;1.73;;
84412;SDS011;74611;53.106;8.778;2023-12-28T15:02:02;9.73;;;1.73;;
84412;SDS011;74611;53.106;8.778;2023-12-28T15:04:28;10.80;;;2.33;;
84412;SDS011;74611;53.106;8.778;2023-12-28T15:06:53;10.57;;;2.42;;